Terminal Aerodrome Forecast
Issued by NWS

Home | Current Version | Previous Version | Text Only | Print | Product List | Glossary On
Versions: 1 2 3 4 5 6 7 8 9 10 11 12 13
000
FTUS43 KMQT 281929 AAA
TAFCMX
TAF AMD
KCMX 281929Z 2819/2918 13011KT P6SM BKN200
     FM290200 16008KT P6SM BKN080 WS010/22035KT
     FM290500 18010KT P6SM -SHRA BKN050 WS010/22035KT
     FM290800 20008KT P6SM -SHRA BKN060 WS010/22035KT
     FM291000 22010KT P6SM SCT100 WS010/24035KT
     FM291300 24013G23KT P6SM SKC
     FM291700 25019G30KT P6SM SCT060=

USA.gov is the U.S. government's official web portal to all federal, state and local government web resources and services.